Bookmark and Share
Track history (hours):
 

Rangiroa

Last reported at 2012-Nov-16 23:26 UTC. Time now 2014-Apr-24 11:38 UTC.
Position N 09°22' W 013°57'.
Warning: this ship's position is years out of date!

Length 91 m; draft 0.6 m.

MMSI: 371654000.

NotesDate/timePositionNaut miles runAvg speedWind from/ knotsBaromVisibWave heightAir tempDewpointWater temp
2012-Nov-16 23:26N 09°22' W 013°57'7 3.8
2012-Nov-16 21:32N 09°21' W 013°50'4 3.7
2012-Nov-16 20:33N 09°21' W 013°46'3 3.1
2012-Nov-16 19:33N 09°23' W 013°44'0 0.1
2012-Nov-16 18:27N 09°23' W 013°44'0 0.0
2012-Nov-16 17:33N 09°23' W 013°44'0 0.0
2012-Nov-16 16:33N 09°23' W 013°44'0 0.0
2012-Nov-16 15:23N 09°23' W 013°44'0 0.1
2012-Nov-16 14:32N 09°23' W 013°44'0 0.0
2012-Nov-16 11:36N 09°23' W 013°44'0 0.0
2012-Nov-16 10:29N 09°23' W 013°44'0 0.4
2012-Nov-16 09:33N 09°23' W 013°44'  
2012-Nov-11 10:30N 27°43' W 015°15'1313.5
2012-Nov-11 09:33N 27°56' W 015°17'1211.7
2012-Nov-11 08:34N 28°06' W 015°21'1 0.9
2012-Nov-11 07:33N 28°07' W 015°21'5 5.3
2012-Nov-11 06:34N 28°02' W 015°19'5 5.5
2012-Nov-11 05:36N 27°57' W 015°19'4 3.8
2012-Nov-11 04:34N 28°01' W 015°17'2 2.0
2012-Nov-11 03:33N 27°59' W 015°15'1 1.2
2012-Nov-11 02:33N 27°58' W 015°15'1010.0
2012-Nov-11 01:34N 28°08' W 015°13'4 4.0
2012-Nov-11 00:33N 28°11' W 015°10'4 4.3
2012-Nov-10 23:33N 28°09' W 015°15'5 5.1
2012-Nov-10 22:34N 28°07' W 015°19'5 4.7
2012-Nov-10 21:34N 28°08' W 015°25'1 0.5
2012-Nov-10 20:26N 28°08' W 015°25'0 0.0
2012-Nov-10 19:30N 28°08' W 015°25'0 0.0
2012-Nov-10 18:33N 28°08' W 015°25'0 0.0
2012-Nov-10 17:29N 28°08' W 015°25'0 0.0
2012-Nov-10 16:30N 28°08' W 015°25'0 0.0
2012-Nov-10 15:24N 28°08' W 015°25'0 0.0
2012-Nov-10 14:32N 28°08' W 015°25'0 0.0
2012-Nov-10 13:27N 28°08' W 015°25'0 0.0
2012-Nov-10 11:37N 28°08' W 015°25'0 0.0
2012-Nov-10 10:32N 28°08' W 015°25'0 0.0
2012-Nov-10 09:28N 28°08' W 015°25'0 0.0
2012-Nov-10 08:31N 28°08' W 015°25'0 0.0
2012-Nov-10 07:26N 28°08' W 015°25'0 0.0
2012-Nov-10 06:31N 28°08' W 015°25'0 0.0
2012-Nov-10 05:36N 28°08' W 015°25'0 0.0
2012-Nov-10 04:26N 28°08' W 015°25'0 0.0
2012-Nov-10 03:30N 28°08' W 015°25'0 0.0
2012-Nov-10 02:33N 28°08' W 015°25'0 0.0
2012-Nov-10 01:31N 28°08' W 015°25'0 0.0
2012-Nov-09 23:32N 28°08' W 015°25'0 0.0
2012-Nov-09 22:24N 28°08' W 015°25'0 0.0
2012-Nov-09 21:28N 28°08' W 015°25'0 0.0
2012-Nov-09 20:33N 28°08' W 015°25'0 0.0
2012-Nov-09 19:30N 28°08' W 015°25'0 0.0
2012-Nov-09 17:24N 28°08' W 015°25'0 0.0
2012-Nov-09 16:27N 28°08' W 015°25'0 0.0
2012-Nov-09 15:31N 28°08' W 015°25'0 0.0
2012-Nov-09 14:24N 28°08' W 015°25'0 0.0
2012-Nov-09 13:26N 28°08' W 015°25'0 0.0
2012-Nov-09 12:33N 28°08' W 015°25'0 0.0
2012-Nov-09 11:29N 28°08' W 015°25'0 0.0
2012-Nov-09 09:31N 28°08' W 015°25'0 0.0
2012-Nov-09 08:33N 28°08' W 015°25'0 0.0
2012-Nov-09 07:31N 28°08' W 015°25'0 0.0
2012-Nov-09 06:27N 28°08' W 015°25'0 0.0
2012-Nov-09 05:34N 28°08' W 015°25'0 0.0
2012-Nov-09 04:28N 28°08' W 015°25'0 0.0
2012-Nov-09 03:30N 28°08' W 015°25'0 0.0
2012-Nov-09 02:34N 28°08' W 015°25'0 0.0
2012-Nov-09 00:34N 28°08' W 015°25'0 0.0
2012-Nov-08 23:28N 28°08' W 015°25'0 0.0
2012-Nov-08 22:31N 28°08' W 015°25'0 0.0
2012-Nov-08 20:24N 28°08' W 015°25'0 0.0
2012-Nov-08 19:31N 28°08' W 015°25'0 0.0
2012-Nov-08 18:31N 28°08' W 015°25'1 0.2
2012-Nov-08 10:24N 28°09' W 015°24'0 0.0
2012-Nov-08 04:28N 28°09' W 015°24'0 0.0
2012-Nov-08 03:27N 28°09' W 015°24'0 0.0
2012-Nov-08 01:32N 28°09' W 015°24'0 0.0
2012-Nov-07 23:24N 28°09' W 015°24'0 0.0
2012-Nov-07 22:31N 28°09' W 015°24'0 0.0
2012-Nov-07 21:27N 28°09' W 015°24'0 0.0
2012-Nov-07 20:31N 28°09' W 015°24'0 0.0
2012-Nov-07 19:31N 28°09' W 015°24'0 0.0
2012-Nov-07 18:31N 28°09' W 015°24'0 0.0
2012-Nov-07 17:28N 28°09' W 015°24'0 0.0
2012-Nov-07 16:25N 28°09' W 015°24'0 0.0
2012-Nov-07 15:33N 28°09' W 015°24'0 0.0
2012-Nov-07 14:31N 28°09' W 015°24'0 0.0
2012-Nov-07 13:30N 28°09' W 015°24'0 0.0
2012-Nov-07 12:32N 28°09' W 015°24'0 0.0
2012-Nov-07 11:36N 28°09' W 015°24'0 0.0
2012-Nov-07 10:29N 28°09' W 015°24'0 0.0
2012-Nov-07 09:30N 28°09' W 015°24'0 0.0
2012-Nov-07 08:32N 28°09' W 015°24'0 0.0
2012-Nov-07 07:32N 28°09' W 015°24'0 0.0
2012-Nov-07 06:31N 28°09' W 015°24'0 0.0
2012-Nov-07 05:32N 28°09' W 015°24'0 0.0
2012-Nov-07 04:26N 28°09' W 015°24'0 0.0
2012-Nov-07 03:25N 28°09' W 015°24'0 0.0
2012-Nov-07 02:29N 28°09' W 015°24'0 0.0
2012-Nov-07 01:24N 28°09' W 015°24'0 0.0
2012-Nov-07 00:28N 28°09' W 015°24'0 0.0
2012-Nov-06 23:29N 28°09' W 015°24'  

Dump ship's entire track history

sailing weather and tide predictions

Rangiroa — 3EDT8 — position and weather